Time;durP1;ratioP1;P1;durP2;ratioP2;P2;SDS_P1;SDS_P2;PMS_P1;PMS_P2;Temp;Humidity;BMP_temperature;BMP_pressure;BME280_temperature;BME280_humidity;BME280_pressure;Samples;Min_cycle;Max_cycle;Signal;HPM_P1;HPM_P2
2022/10/24 00:02:12;;;;;;;6.13;4.22;;;;;;;;;;5187668;28;20152;-67
2022/10/24 00:04:42;;;;;;;3.15;3.03;;;;;;;;;;5205179;28;20101;-67
2022/10/24 00:07:13;;;;;;;9.13;2.40;;;;;;;;;;5187983;28;20026;-67
2022/10/24 00:09:43;;;;;;;7.25;3.75;;;;;;;;;;5187698;28;20482;-67
2022/10/24 00:12:13;;;;;;;3.92;2.65;;;;;;;;;;5187753;28;20151;-67
2022/10/24 00:14:44;;;;;;;4.43;3.22;;;;;;;;;;5216014;22;20048;-79
2022/10/24 00:17:14;;;;;;;2.60;2.40;;;;;;;;;;5217766;28;20048;-80
2022/10/24 00:19:44;;;;;;;3.33;3.13;;;;;;;;;;5217022;28;20060;-80
2022/10/24 00:22:14;;;;;;;6.03;3.78;;;;;;;;;;5199476;28;20029;-80
2022/10/24 00:24:45;;;;;;;3.40;3.10;;;;;;;;;;5215167;28;20052;-80
2022/10/24 00:27:15;;;;;;;3.33;3.13;;;;;;;;;;5217185;28;20325;-80
2022/10/24 00:29:45;;;;;;;3.28;3.03;;;;;;;;;;5216767;28;20205;-80
2022/10/24 00:32:16;;;;;;;3.42;3.13;;;;;;;;;;5216697;28;20215;-79
2022/10/24 00:34:46;;;;;;;11.30;4.10;;;;;;;;;;5214960;28;20033;-80
2022/10/24 00:37:16;;;;;;;3.50;3.25;;;;;;;;;;5216075;28;20018;-79
2022/10/24 00:39:46;;;;;;;7.68;3.80;;;;;;;;;;5215978;28;20101;-81
2022/10/24 00:42:17;;;;;;;4.85;3.40;;;;;;;;;;5215600;28;20022;-80
2022/10/24 00:44:48;;;;;;;4.03;2.93;;;;;;;;;;5214483;28;20412;-80
2022/10/24 00:47:20;;;;;;;4.03;3.28;;;;;;;;;;5197167;28;20359;-81
2022/10/24 00:49:51;;;;;;;5.65;3.60;;;;;;;;;;5214804;28;20060;-80
2022/10/24 00:52:22;;;;;;;3.03;2.90;;;;;;;;;;5214932;28;20101;-80
2022/10/24 00:54:54;;;;;;;2.85;2.67;;;;;;;;;;5214532;28;20256;-81
2022/10/24 00:57:39;;;;;;;6.68;3.63;;;;;;;;;;5214640;28;20097;-81
2022/10/24 01:00:11;;;;;;;12.30;3.42;;;;;;;;;;5213995;28;20454;-79
2022/10/24 01:02:42;;;;;;;11.27;3.53;;;;;;;;;;5213236;28;20013;-81
2022/10/24 01:05:13;;;;;;;4.43;4.00;;;;;;;;;;5195576;28;20079;-79
2022/10/24 01:07:43;;;;;;;16.02;3.40;;;;;;;;;;5214165;28;20089;-82
2022/10/24 01:10:28;;;;;;;4.60;3.43;;;;;;;;;;5214151;28;20510;-81
2022/10/24 01:13:08;;;;;;;9.32;4.05;;;;;;;;;;5214711;28;20267;-79
2022/10/24 01:15:48;;;;;;;3.75;3.45;;;;;;;;;;5215876;28;20022;-81
2022/10/24 01:18:18;;;;;;;;;;;;;;;;;;5200718;28;20053;-81
2022/10/24 01:20:59;;;;;;;15.63;3.67;;;;;;;;;;5218024;28;19928;-81
2022/10/24 01:23:44;;;;;;;2.78;2.60;;;;;;;;;;5218450;28;20046;-80
2022/10/24 01:26:20;;;;;;;3.20;2.95;;;;;;;;;;5219777;28;20026;-81
2022/10/24 01:28:51;;;;;;;5.18;4.72;;;;;;;;;;5219792;28;20024;-81
2022/10/24 01:31:34;;;;;;;3.87;3.57;;;;;;;;;;5218692;28;20155;-81
2022/10/24 01:34:11;;;;;;;2.60;2.40;;;;;;;;;;5217531;28;20049;-82
2022/10/24 01:36:46;;;;;;;6.57;3.38;;;;;;;;;;5219250;28;20073;-81
2022/10/24 01:39:19;;;;;;;2.72;2.47;;;;;;;;;;5202242;28;20033;-81
2022/10/24 01:41:51;;;;;;;3.28;2.67;;;;;;;;;;5200124;28;20079;-80
2022/10/24 01:44:24;;;;;;;4.78;3.35;;;;;;;;;;5217948;28;20047;-79
2022/10/24 01:46:57;;;;;;;2.80;2.47;;;;;;;;;;5218479;28;20021;-81
2022/10/24 01:49:30;;;;;;;4.05;3.55;;;;;;;;;;5201444;28;20029;-81
2022/10/24 01:52:02;;;;;;;2.67;2.47;;;;;;;;;;5219596;28;20104;-80
2022/10/24 01:54:32;;;;;;;7.75;3.53;;;;;;;;;;5216600;28;20494;-80
2022/10/24 01:57:04;;;;;;;4.30;2.92;;;;;;;;;;5219269;28;20221;-80
2022/10/24 01:59:42;;;;;;;2.90;2.58;;;;;;;;;;5201359;28;20024;-80
2022/10/24 02:02:15;;;;;;;3.35;3.08;;;;;;;;;;5218383;28;20081;-81
2022/10/24 02:04:55;;;;;;;6.30;2.67;;;;;;;;;;5200612;28;20078;-81
2022/10/24 02:07:26;;;;;;;4.30;2.40;;;;;;;;;;5218643;28;20048;-81
2022/10/24 02:09:58;;;;;;;3.03;2.72;;;;;;;;;;5217650;28;20025;-81
2022/10/24 02:12:29;;;;;;;7.35;2.70;;;;;;;;;;5217769;28;20029;-82
2022/10/24 02:15:06;;;;;;;4.05;2.45;;;;;;;;;;5216405;28;20026;-81
2022/10/24 02:17:36;;;;;;;3.00;2.22;;;;;;;;;;5218047;28;20025;-82
2022/10/24 02:20:07;;;;;;;7.63;3.85;;;;;;;;;;5217176;28;20033;-82
2022/10/24 02:22:43;;;;;;;2.40;2.20;;;;;;;;;;5216675;28;20111;-81
2022/10/24 02:25:20;;;;;;;2.85;2.63;;;;;;;;;;5215178;28;20032;-82
2022/10/24 02:28:02;;;;;;;2.60;2.50;;;;;;;;;;5197404;28;20052;-81
2022/10/24 02:30:36;;;;;;;21.58;3.70;;;;;;;;;;5215179;28;20112;-81
2022/10/24 02:33:06;;;;;;;3.50;3.20;;;;;;;;;;5197336;28;20021;-81
2022/10/24 02:35:38;;;;;;;4.45;2.90;;;;;;;;;;5215117;28;20036;-83
2022/10/24 02:38:14;;;;;;;6.68;2.78;;;;;;;;;;5216302;28;20017;-82
2022/10/24 02:40:45;;;;;;;12.20;3.58;;;;;;;;;;5216486;28;20021;-82
2022/10/24 02:43:16;;;;;;;13.60;2.58;;;;;;;;;;5199681;28;20018;-84
2022/10/24 02:45:48;;;;;;;2.20;2.10;;;;;;;;;;5216385;28;20032;-82
2022/10/24 02:48:20;;;;;;;3.28;3.05;;;;;;;;;;5217377;28;20073;-81
2022/10/24 02:50:50;;;;;;;6.15;2.47;;;;;;;;;;5218021;28;20022;-82
2022/10/24 02:53:23;;;;;;;2.05;1.95;;;;;;;;;;5199394;28;20049;-82
2022/10/24 02:55:53;;;;;;;3.00;2.55;;;;;;;;;;5218185;28;20033;-82
2022/10/24 02:58:23;;;;;;;4.15;2.78;;;;;;;;;;5199832;28;20395;-82
2022/10/24 03:00:54;;;;;;;5.60;2.58;;;;;;;;;;5217720;28;20069;-82
2022/10/24 03:03:24;;;;;;;3.30;2.17;;;;;;;;;;5217158;28;20016;-83
2022/10/24 03:05:54;;;;;;;6.15;3.22;;;;;;;;;;5216586;28;20412;-84
2022/10/24 03:08:24;;;;;;;5.13;2.80;;;;;;;;;;5216361;28;20024;-83
2022/10/24 03:10:55;;;;;;;4.10;2.92;;;;;;;;;;5217172;28;20425;-83
2022/10/24 03:13:25;;;;;;;4.00;3.03;;;;;;;;;;5198628;28;20033;-83
2022/10/24 03:15:55;;;;;;;5.47;3.63;;;;;;;;;;5216942;28;20275;-83
2022/10/24 03:18:25;;;;;;;3.80;2.92;;;;;;;;;;5216713;28;20085;-82
2022/10/24 03:20:56;;;;;;;3.30;2.67;;;;;;;;;;5199226;28;20017;-81
2022/10/24 03:23:27;;;;;;;4.72;3.70;;;;;;;;;;5198979;28;20397;-82
2022/10/24 03:25:58;;;;;;;5.32;3.17;;;;;;;;;;5217464;28;20014;-82
2022/10/24 03:28:28;;;;;;;4.55;3.95;;;;;;;;;;5217696;28;20041;-81
2022/10/24 03:30:58;;;;;;;2.58;2.22;;;;;;;;;;5218809;28;20074;-81
2022/10/24 03:33:28;;;;;;;2.33;2.20;;;;;;;;;;5218475;28;20021;-80
2022/10/24 03:35:59;;;;;;;4.40;3.72;;;;;;;;;;5217402;28;20316;-82
2022/10/24 03:38:29;;;;;;;3.42;3.13;;;;;;;;;;5216822;28;20379;-83
2022/10/24 03:41:00;;;;;;;6.47;2.88;;;;;;;;;;5216566;28;20048;-82
2022/10/24 03:43:30;;;;;;;3.58;3.28;;;;;;;;;;5217363;28;20021;-82
2022/10/24 03:46:00;;;;;;;2.97;2.83;;;;;;;;;;5198313;28;20048;-83
2022/10/24 03:48:31;;;;;;;7.70;3.40;;;;;;;;;;5216034;28;20291;-82
2022/10/24 03:51:01;;;;;;;8.40;2.35;;;;;;;;;;5216929;28;20044;-82
2022/10/24 03:53:31;;;;;;;5.97;3.45;;;;;;;;;;5216174;28;20439;-82
2022/10/24 03:56:02;;;;;;;6.70;4.13;;;;;;;;;;5217099;28;20135;-83
2022/10/24 03:58:32;;;;;;;7.93;3.13;;;;;;;;;;5212651;28;20049;-82
2022/10/24 04:01:03;;;;;;;4.18;2.63;;;;;;;;;;5193851;28;20025;-81
2022/10/24 04:03:33;;;;;;;3.85;2.22;;;;;;;;;;5192270;28;20033;-80
2022/10/24 04:06:03;;;;;;;2.42;2.22;;;;;;;;;;5211274;28;20053;-81
2022/10/24 04:08:33;;;;;;;10.98;2.65;;;;;;;;;;5211343;28;20025;-80
2022/10/24 04:11:04;;;;;;;3.53;3.22;;;;;;;;;;5195287;28;20456;-81
2022/10/24 04:13:35;;;;;;;3.65;2.83;;;;;;;;;;5210190;28;20167;-80
2022/10/24 04:16:05;;;;;;;4.75;2.53;;;;;;;;;;5192446;28;20029;-81
2022/10/24 04:18:36;;;;;;;6.30;3.53;;;;;;;;;;5210119;28;20383;-79
2022/10/24 04:21:06;;;;;;;2.67;2.47;;;;;;;;;;5209770;28;20033;-80
2022/10/24 04:23:39;;;;;;;4.95;2.85;;;;;;;;;;5191563;28;20483;-79
2022/10/24 04:26:11;;;;;;;5.97;3.08;;;;;;;;;;5192338;28;20148;-82
2022/10/24 04:28:42;;;;;;;3.00;2.70;;;;;;;;;;5209109;28;20175;-82
2022/10/24 04:31:13;;;;;;;3.78;3.15;;;;;;;;;;5214187;28;20033;-82
2022/10/24 04:33:43;;;;;;;6.82;3.65;;;;;;;;;;5214158;28;20079;-82
2022/10/24 04:36:13;;;;;;;3.45;3.22;;;;;;;;;;5214859;28;20029;-81
2022/10/24 04:38:44;;;;;;;3.33;3.03;;;;;;;;;;5214646;28;20021;-82
2022/10/24 04:41:14;;;;;;;5.40;2.87;;;;;;;;;;5215495;28;20097;-82
2022/10/24 04:43:44;;;;;;;2.75;2.60;;;;;;;;;;5214299;28;20268;-81
2022/10/24 04:46:14;;;;;;;3.92;3.53;;;;;;;;;;5213983;28;20033;-82
2022/10/24 04:48:45;;;;;;;2.30;2.20;;;;;;;;;;5193267;28;20048;-81
2022/10/24 04:51:15;;;;;;;12.25;3.90;;;;;;;;;;5213314;28;20260;-81
2022/10/24 04:53:45;;;;;;;3.03;2.72;;;;;;;;;;5198159;28;20544;-82
2022/10/24 04:56:16;;;;;;;3.67;2.63;;;;;;;;;;5214095;28;20029;-82
2022/10/24 04:58:46;;;;;;;3.10;2.85;;;;;;;;;;5210829;28;20272;-81
2022/10/24 05:01:16;;;;;;;5.90;3.07;;;;;;;;;;5212309;28;20493;-81
2022/10/24 05:03:46;;;;;;;2.40;2.20;;;;;;;;;;5211145;28;20260;-81
2022/10/24 05:06:17;;;;;;;3.08;2.85;;;;;;;;;;5216339;28;20380;-82
2022/10/24 05:08:47;;;;;;;3.88;3.22;;;;;;;;;;5202074;28;20022;-81
2022/10/24 05:11:17;;;;;;;6.25;3.47;;;;;;;;;;5219927;28;20017;-81
2022/10/24 05:13:47;;;;;;;3.88;3.38;;;;;;;;;;5203206;28;20445;-80
2022/10/24 05:16:18;;;;;;;5.17;4.20;;;;;;;;;;5238023;28;20025;-79
2022/10/24 05:18:48;;;;;;;2.50;2.30;;;;;;;;;;5237870;28;20267;-81
2022/10/24 05:21:18;;;;;;;4.53;3.10;;;;;;;;;;5217996;28;20716;-80
2022/10/24 05:23:48;;;;;;;7.90;3.73;;;;;;;;;;5235880;28;20095;-79
2022/10/24 05:26:19;;;;;;;5.93;3.13;;;;;;;;;;5237551;28;20267;-80
2022/10/24 05:28:49;;;;;;;3.70;2.50;;;;;;;;;;5235839;28;20017;-80
2022/10/24 05:31:19;;;;;;;9.02;3.75;;;;;;;;;;5235816;28;20316;-81
2022/10/24 05:33:49;;;;;;;7.23;4.10;;;;;;;;;;5235725;28;20013;-81
2022/10/24 05:36:20;;;;;;;2.65;2.45;;;;;;;;;;5236156;28;20267;-81
2022/10/24 05:38:50;;;;;;;6.07;2.97;;;;;;;;;;5216872;28;20021;-81
2022/10/24 05:41:20;;;;;;;4.63;4.07;;;;;;;;;;5230300;28;20274;-81
2022/10/24 05:43:50;;;;;;;5.20;3.20;;;;;;;;;;5233045;28;20633;-80
2022/10/24 05:46:20;;;;;;;3.45;2.63;;;;;;;;;;5232558;28;20274;-80
2022/10/24 05:48:51;;;;;;;5.30;3.63;;;;;;;;;;5229609;28;20398;-80
2022/10/24 05:51:21;;;;;;;5.47;3.20;;;;;;;;;;5232895;28;20031;-80
2022/10/24 05:53:51;;;;;;;5.22;4.35;;;;;;;;;;5231418;28;20153;-79
2022/10/24 05:56:22;;;;;;;7.50;3.20;;;;;;;;;;5233339;28;20092;-79
2022/10/24 05:58:54;;;;;;;4.13;3.73;;;;;;;;;;5232094;28;20355;-80
2022/10/24 06:01:25;;;;;;;6.10;3.10;;;;;;;;;;5231902;28;20526;-80
2022/10/24 06:03:55;;;;;;;3.28;2.97;;;;;;;;;;5221134;28;20028;-80
2022/10/24 06:06:30;;;;;;;3.33;3.03;;;;;;;;;;5244631;28;20017;-81
2022/10/24 06:09:00;;;;;;;14.70;3.55;;;;;;;;;;5231721;28;20099;-81
2022/10/24 06:11:30;;;;;;;4.00;2.83;;;;;;;;;;5245119;28;20040;-84
2022/10/24 06:14:00;;;;;;;3.58;3.15;;;;;;;;;;5248217;28;20020;-80
2022/10/24 06:16:32;;;;;;;5.13;3.35;;;;;;;;;;5281710;22;20044;-64
2022/10/24 06:19:03;;;;;;;10.00;3.92;;;;;;;;;;5251535;28;20024;-65
2022/10/24 06:21:33;;;;;;;4.47;3.38;;;;;;;;;;5251636;28;20498;-65
2022/10/24 06:24:03;;;;;;;7.75;3.45;;;;;;;;;;5251702;28;20016;-65
2022/10/24 06:26:34;;;;;;;9.30;3.28;;;;;;;;;;5251873;28;20024;-64
2022/10/24 06:29:04;;;;;;;6.90;4.30;;;;;;;;;;5251488;28;20480;-65
2022/10/24 06:31:36;;;;;;;10.30;3.40;;;;;;;;;;5251153;28;20046;-65
2022/10/24 06:34:06;;;;;;;5.60;4.15;;;;;;;;;;5251244;28;20020;-65
2022/10/24 06:36:36;;;;;;;8.35;3.35;;;;;;;;;;5251092;28;20069;-66
2022/10/24 06:39:06;;;;;;;5.82;3.45;;;;;;;;;;5251325;28;20020;-64
2022/10/24 06:41:37;;;;;;;6.50;3.67;;;;;;;;;;5269902;28;20020;-67
2022/10/24 06:44:07;;;;;;;8.68;3.53;;;;;;;;;;5250734;28;20048;-66
2022/10/24 06:46:37;;;;;;;2.63;2.50;;;;;;;;;;5251513;28;20012;-66
2022/10/24 06:49:08;;;;;;;8.27;5.03;;;;;;;;;;5251224;28;20020;-66
2022/10/24 06:51:39;;;;;;;5.55;3.42;;;;;;;;;;5249100;28;20540;-67
2022/10/24 06:54:10;;;;;;;14.88;4.93;;;;;;;;;;5250721;28;20020;-68
2022/10/24 06:56:40;;;;;;;6.60;3.90;;;;;;;;;;5251245;28;20020;-68
2022/10/24 06:59:13;;;;;;;5.13;3.25;;;;;;;;;;5250400;28;20016;-68
2022/10/24 07:01:44;;;;;;;7.53;3.70;;;;;;;;;;5251108;28;20020;-66
2022/10/24 07:04:14;;;;;;;9.60;3.10;;;;;;;;;;5250738;28;20016;-67
2022/10/24 07:06:44;;;;;;;5.30;3.38;;;;;;;;;;5251027;28;20024;-68
2022/10/24 07:09:14;;;;;;;4.72;2.85;;;;;;;;;;5250316;28;20032;-67
2022/10/24 07:11:45;;;;;;;6.50;2.83;;;;;;;;;;5249498;28;20480;-68
2022/10/24 07:14:15;;;;;;;3.85;2.75;;;;;;;;;;5250281;28;20032;-66
2022/10/24 07:16:48;;;;;;;5.78;2.90;;;;;;;;;;5250155;28;20036;-68
2022/10/24 07:19:18;;;;;;;2.03;1.92;;;;;;;;;;5250805;28;20032;-63
2022/10/24 07:21:48;;;;;;;5.20;2.38;;;;;;;;;;5233904;28;20028;-64
2022/10/24 07:24:22;;;;;;;6.47;3.65;;;;;;;;;;5250496;28;20031;-66
2022/10/24 07:26:52;;;;;;;4.63;2.85;;;;;;;;;;5250732;28;20024;-66
2022/10/24 07:29:23;;;;;;;5.97;2.80;;;;;;;;;;5249804;28;20035;-66
2022/10/24 07:31:53;;;;;;;4.30;2.83;;;;;;;;;;5250530;28;20139;-65
2022/10/24 07:34:25;;;;;;;3.72;2.28;;;;;;;;;;5250509;28;20479;-65
2022/10/24 07:36:55;;;;;;;8.23;3.50;;;;;;;;;;5250466;28;20020;-66
2022/10/24 07:39:26;;;;;;;2.33;2.15;;;;;;;;;;5250423;28;20103;-65
2022/10/24 07:41:56;;;;;;;3.47;2.20;;;;;;;;;;5250330;28;20119;-66
2022/10/24 07:44:30;;;;;;;6.68;4.43;;;;;;;;;;5249915;28;20392;-65
2022/10/24 07:47:05;;;;;;;3.45;3.20;;;;;;;;;;5250219;28;20028;-67
2022/10/24 07:49:36;;;;;;;5.25;2.88;;;;;;;;;;5250079;28;20016;-67
2022/10/24 07:52:07;;;;;;;6.15;3.28;;;;;;;;;;5250320;28;20384;-65
2022/10/24 07:54:37;;;;;;;5.72;4.15;;;;;;;;;;5232767;28;20054;-65
2022/10/24 07:57:08;;;;;;;5.38;3.25;;;;;;;;;;5268158;28;20373;-64
2022/10/24 07:59:39;;;;;;;4.18;3.22;;;;;;;;;;5268130;28;20050;-65
2022/10/24 08:02:10;;;;;;;9.52;4.03;;;;;;;;;;5268295;28;20023;-64
2022/10/24 08:04:41;;;;;;;7.50;3.35;;;;;;;;;;5249690;28;20024;-65
2022/10/24 08:07:14;;;;;;;11.90;4.38;;;;;;;;;;5249736;28;20106;-66
2022/10/24 08:09:46;;;;;;;12.57;4.28;;;;;;;;;;5267679;28;20035;-66
2022/10/24 08:12:17;;;;;;;9.90;5.20;;;;;;;;;;5249807;28;20066;-65
2022/10/24 08:14:47;;;;;;;5.68;3.53;;;;;;;;;;5249513;28;20048;-66
2022/10/24 08:17:18;;;;;;;7.88;4.15;;;;;;;;;;5249606;28;20024;-67
2022/10/24 08:19:48;;;;;;;7.97;3.40;;;;;;;;;;5249561;28;20012;-66
2022/10/24 08:22:19;;;;;;;9.32;3.70;;;;;;;;;;5267578;28;20020;-67
2022/10/24 08:24:49;;;;;;;9.57;4.35;;;;;;;;;;5248265;28;20039;-65
2022/10/24 08:27:19;;;;;;;6.13;3.58;;;;;;;;;;5267513;28;20074;-65
2022/10/24 08:29:50;;;;;;;10.50;3.40;;;;;;;;;;5267788;28;20353;-66
2022/10/24 08:32:20;;;;;;;5.45;2.95;;;;;;;;;;5249592;28;20097;-66
2022/10/24 08:34:50;;;;;;;7.07;3.42;;;;;;;;;;5249035;28;20028;-66
2022/10/24 08:37:20;;;;;;;4.18;3.67;;;;;;;;;;5249300;28;20036;-66
2022/10/24 08:39:54;;;;;;;9.07;2.60;;;;;;;;;;5249232;28;20480;-66
2022/10/24 08:42:24;;;;;;;11.10;3.97;;;;;;;;;;5249931;28;20051;-65
2022/10/24 08:44:55;;;;;;;5.68;4.55;;;;;;;;;;5249891;28;20440;-66
2022/10/24 08:47:39;;;;;;;12.52;4.82;;;;;;;;;;5250705;28;20111;-66
2022/10/24 08:50:20;;;;;;;13.80;4.85;;;;;;;;;;5250256;28;20036;-66
2022/10/24 08:52:56;;;;;;;4.95;3.85;;;;;;;;;;5249864;28;20016;-67
2022/10/24 08:55:36;;;;;;;5.10;4.47;;;;;;;;;;5249355;28;20110;-66
2022/10/24 08:58:10;;;;;;;5.57;4.68;;;;;;;;;;5249804;28;20027;-66
2022/10/24 09:00:43;;;;;;;7.13;4.00;;;;;;;;;;5249497;28;20066;-68
2022/10/24 09:03:13;;;;;;;4.20;3.83;;;;;;;;;;5249728;28;20035;-68
2022/10/24 09:05:51;;;;;;;12.63;3.30;;;;;;;;;;5249533;28;20407;-67
2022/10/24 09:08:25;;;;;;;8.25;3.22;;;;;;;;;;5249722;28;20105;-67
2022/10/24 09:10:58;;;;;;;11.68;3.92;;;;;;;;;;5249295;28;20115;-66
2022/10/24 09:13:29;;;;;;;7.28;4.25;;;;;;;;;;5249087;28;20020;-67
2022/10/24 09:15:59;;;;;;;6.75;3.97;;;;;;;;;;5249275;28;20472;-67
2022/10/24 09:18:31;;;;;;;5.68;3.08;;;;;;;;;;5267697;28;20017;-68
2022/10/24 09:21:04;;;;;;;15.95;4.25;;;;;;;;;;5231122;28;20032;-67
2022/10/24 09:23:36;;;;;;;5.53;3.47;;;;;;;;;;5228036;28;20017;-68
2022/10/24 09:26:11;;;;;;;5.00;3.72;;;;;;;;;;5227853;28;20216;-66
2022/10/24 09:28:45;;;;;;;4.78;3.20;;;;;;;;;;5240362;28;20161;-67
2022/10/24 09:31:17;;;;;;;9.85;4.05;;;;;;;;;;5227761;28;20089;-68
2022/10/24 09:33:48;;;;;;;6.97;4.70;;;;;;;;;;5228196;28;20027;-67
2022/10/24 09:36:20;;;;;;;19.30;5.28;;;;;;;;;;5229510;28;20031;-66
2022/10/24 09:38:50;;;;;;;12.30;4.50;;;;;;;;;;5232152;28;20034;-69
2022/10/24 09:41:26;;;;;;;4.97;2.30;;;;;;;;;;5248674;28;20540;-66
2022/10/24 09:43:58;;;;;;;5.03;3.88;;;;;;;;;;5231840;28;20051;-67
2022/10/24 09:46:36;;;;;;;6.20;3.78;;;;;;;;;;5232556;28;20023;-67
2022/10/24 09:49:17;;;;;;;9.07;3.13;;;;;;;;;;5231908;28;20029;-69
2022/10/24 09:52:00;;;;;;;10.50;3.28;;;;;;;;;;5249947;28;20088;-67
2022/10/24 09:54:31;;;;;;;7.82;3.75;;;;;;;;;;5231623;28;20026;-67
2022/10/24 09:57:11;;;;;;;4.25;3.38;;;;;;;;;;5231644;28;20056;-67
2022/10/24 09:59:44;;;;;;;9.00;2.35;;;;;;;;;;5231967;28;20029;-67
2022/10/24 10:02:23;;;;;;;16.27;4.75;;;;;;;;;;5231463;28;20020;-67
2022/10/24 10:05:02;;;;;;;5.43;3.42;;;;;;;;;;5231228;28;20028;-67
2022/10/24 10:07:37;;;;;;;8.50;3.53;;;;;;;;;;5210995;28;20507;-68
2022/10/24 10:10:17;;;;;;;4.82;4.15;;;;;;;;;;5211012;28;20397;-67
2022/10/24 10:12:55;;;;;;;4.20;2.45;;;;;;;;;;5210936;28;20079;-67
2022/10/24 10:15:45;;;;;;;4.20;3.38;;;;;;;;;;5209633;28;20025;-67
2022/10/24 10:18:34;;;;;;;10.55;3.97;;;;;;;;;;5211156;28;20020;-66
2022/10/24 10:21:06;;;;;;;4.55;2.33;;;;;;;;;;5210375;28;20021;-68
2022/10/24 10:23:38;;;;;;;3.20;2.42;;;;;;;;;;5228464;28;20051;-67
2022/10/24 10:26:23;;;;;;;10.65;4.72;;;;;;;;;;5210779;28;20017;-67
2022/10/24 10:29:01;;;;;;;4.00;3.22;;;;;;;;;;5210780;28;20029;-67
2022/10/24 10:31:42;;;;;;;5.00;3.33;;;;;;;;;;5210201;28;20020;-66
2022/10/24 10:34:20;;;;;;;7.45;3.70;;;;;;;;;;5210110;28;20048;-67
2022/10/24 10:37:03;;;;;;;3.50;2.08;;;;;;;;;;5210574;28;20045;-68
2022/10/24 10:39:52;;;;;;;10.10;3.28;;;;;;;;;;5210105;28;20029;-67
2022/10/24 10:42:22;;;;;;;4.50;3.25;;;;;;;;;;5228464;28;20064;-66
2022/10/24 10:45:07;;;;;;;9.43;3.55;;;;;;;;;;5210121;28;20083;-67
2022/10/24 10:47:56;;;;;;;7.95;4.00;;;;;;;;;;5209624;28;20028;-71
2022/10/24 10:50:35;;;;;;;9.30;4.20;;;;;;;;;;5235339;28;20472;-66
2022/10/24 10:53:24;;;;;;;5.93;2.67;;;;;;;;;;5269485;28;20483;-68
2022/10/24 10:56:17;;;;;;;33.50;8.30;;;;;;;;;;5251371;28;20073;-68
2022/10/24 10:58:55;;;;;;;5.38;2.58;;;;;;;;;;5251687;28;20476;-67
2022/10/24 11:01:47;;;;;;;3.08;2.85;;;;;;;;;;5231737;28;20016;-67
2022/10/24 11:04:44;;;;;;;6.63;3.80;;;;;;;;;;5230336;28;20496;-67
2022/10/24 11:07:17;;;;;;;13.63;4.40;;;;;;;;;;5200448;28;20435;-67
2022/10/24 11:09:49;;;;;;;4.05;2.83;;;;;;;;;;5230612;28;20203;-68
2022/10/24 11:12:36;;;;;;;7.00;3.08;;;;;;;;;;5230549;28;20012;-70
2022/10/24 11:15:13;;;;;;;7.68;3.88;;;;;;;;;;5229815;28;20020;-70
2022/10/24 11:17:52;;;;;;;3.42;2.58;;;;;;;;;;5230482;28;20028;-67
2022/10/24 11:20:22;;;;;;;6.03;2.50;;;;;;;;;;5229902;28;20020;-67
2022/10/24 11:22:55;;;;;;;3.47;3.13;;;;;;;;;;5230866;28;20046;-66
2022/10/24 11:25:29;;;;;;;14.82;3.35;;;;;;;;;;5229490;28;20055;-68
2022/10/24 11:28:18;;;;;;;12.05;3.70;;;;;;;;;;5230162;28;20108;-67
2022/10/24 11:30:58;;;;;;;9.32;5.30;;;;;;;;;;5230198;28;20059;-68
2022/10/24 11:33:31;;;;;;;7.88;4.70;;;;;;;;;;5248253;28;20025;-68
2022/10/24 11:36:28;;;;;;;9.93;4.15;;;;;;;;;;5230073;28;20020;-66
2022/10/24 11:39:05;;;;;;;12.48;3.65;;;;;;;;;;5199542;28;20032;-67
2022/10/24 11:41:44;;;;;;;4.10;2.65;;;;;;;;;;5229952;28;20030;-68
2022/10/24 11:44:38;;;;;;;4.95;3.10;;;;;;;;;;5229357;28;20081;-67
2022/10/24 11:47:23;;;;;;;4.47;2.85;;;;;;;;;;5219571;28;20477;-68
2022/10/24 11:50:00;;;;;;;7.18;3.58;;;;;;;;;;5229443;28;20107;-66
2022/10/24 11:52:33;;;;;;;14.13;3.45;;;;;;;;;;5247549;28;20020;-67
2022/10/24 11:55:06;;;;;;;6.53;3.45;;;;;;;;;;5229005;28;20017;-67
2022/10/24 11:57:37;;;;;;;3.22;2.92;;;;;;;;;;5229690;28;20040;-67
2022/10/24 12:00:13;;;;;;;7.53;3.42;;;;;;;;;;5228899;28;20016;-67
2022/10/24 12:02:59;;;;;;;2.60;2.40;;;;;;;;;;5247585;28;20024;-69
2022/10/24 12:05:44;;;;;;;4.63;3.38;;;;;;;;;;5229126;28;20024;-67
2022/10/24 12:08:29;;;;;;;7.22;3.45;;;;;;;;;;5229372;28;20016;-68
2022/10/24 12:11:18;;;;;;;6.40;5.78;;;;;;;;;;5229524;28;20029;-67
2022/10/24 12:14:11;;;;;;;9.20;4.68;;;;;;;;;;5229180;28;20107;-67
2022/10/24 12:16:55;;;;;;;12.65;3.45;;;;;;;;;;5213909;22;20036;-80
2022/10/24 12:19:26;;;;;;;2.95;2.38;;;;;;;;;;5239738;28;20119;-81
2022/10/24 12:22:00;;;;;;;10.50;3.05;;;;;;;;;;5231135;28;20024;-81
2022/10/24 12:24:32;;;;;;;2.40;2.30;;;;;;;;;;5232139;28;20040;-82
2022/10/24 12:27:04;;;;;;;3.80;3.50;;;;;;;;;;5231907;28;20016;-82
2022/10/24 12:29:35;;;;;;;15.98;3.38;;;;;;;;;;5251002;28;20435;-82
2022/10/24 12:32:35;;;;;;;6.03;3.03;;;;;;;;;;5232963;28;20013;-81
2022/10/24 12:35:05;;;;;;;;;;;;;;;;;;5236344;28;20030;-81
2022/10/24 12:37:35;;;;;;;2.07;1.97;;;;;;;;;;5250490;28;19904;-81
2022/10/24 12:40:24;;;;;;;2.67;2.58;;;;;;;;;;5231730;28;20074;-81
2022/10/24 12:42:54;;;;;;;11.60;3.65;;;;;;;;;;5248991;28;20024;-81
2022/10/24 12:45:31;;;;;;;3.10;3.00;;;;;;;;;;5247343;28;20017;-80
2022/10/24 12:48:01;;;;;;;4.80;2.85;;;;;;;;;;5248339;28;20251;-80
2022/10/24 12:50:34;;;;;;;5.93;1.90;;;;;;;;;;5247504;28;20036;-80
2022/10/24 12:53:15;;;;;;;3.50;3.08;;;;;;;;;;5245382;28;20067;-80
2022/10/24 12:55:46;;;;;;;7.82;2.55;;;;;;;;;;5230141;28;20091;-81
2022/10/24 12:58:23;;;;;;;20.63;3.40;;;;;;;;;;5246859;28;20020;-82
2022/10/24 13:00:53;;;;;;;3.88;3.47;;;;;;;;;;5266757;28;20030;-79
2022/10/24 13:03:30;;;;;;;3.25;2.97;;;;;;;;;;5267504;28;20016;-81
2022/10/24 13:06:05;;;;;;;3.60;2.15;;;;;;;;;;5251292;28;20028;-81
2022/10/24 13:09:08;;;;;;;4.00;2.60;;;;;;;;;;5272242;28;20023;-81
2022/10/24 13:11:38;;;;;;;3.85;2.70;;;;;;;;;;5234766;28;20130;-82
2022/10/24 13:14:27;;;;;;;3.37;2.53;;;;;;;;;;5280865;28;20063;-81
2022/10/24 13:16:57;;;;;;;4.25;3.10;;;;;;;;;;5280564;28;20095;-82
2022/10/24 13:19:28;;;;;;;2.58;2.47;;;;;;;;;;5279823;28;20655;-80
2022/10/24 13:21:59;;;;;;;4.45;2.60;;;;;;;;;;5273292;28;20026;-81
2022/10/24 13:24:34;;;;;;;16.02;2.85;;;;;;;;;;5253407;28;20044;-80
2022/10/24 13:27:07;;;;;;;3.92;2.70;;;;;;;;;;5273604;28;20020;-81
2022/10/24 13:29:37;;;;;;;2.17;1.98;;;;;;;;;;5255135;28;20042;-81
2022/10/24 13:32:10;;;;;;;3.87;3.60;;;;;;;;;;5272684;28;20020;-80
2022/10/24 13:34:53;;;;;;;2.22;2.13;;;;;;;;;;5252948;28;20339;-81
2022/10/24 13:37:32;;;;;;;2.13;2.03;;;;;;;;;;5274402;28;20032;-79
2022/10/24 13:40:13;;;;;;;4.25;1.85;;;;;;;;;;5254968;28;20036;-79
2022/10/24 13:42:54;;;;;;;5.75;2.55;;;;;;;;;;5272587;28;20040;-82
2022/10/24 13:45:39;;;;;;;2.95;2.13;;;;;;;;;;5253952;28;20475;-81
2022/10/24 13:48:14;;;;;;;9.63;3.38;;;;;;;;;;5235928;28;20047;-80
2022/10/24 13:50:48;;;;;;;5.05;2.25;;;;;;;;;;5251772;28;20040;-82
2022/10/24 13:53:22;;;;;;;2.35;2.17;;;;;;;;;;5249752;28;20563;-79
2022/10/24 13:55:53;;;;;;;2.10;1.92;;;;;;;;;;5252953;28;20733;-81
2022/10/24 13:58:24;;;;;;;1.60;1.50;;;;;;;;;;5254273;28;20146;-81
2022/10/24 14:00:59;;;;;;;1.77;1.67;;;;;;;;;;5256693;28;20597;-81
2022/10/24 14:03:30;;;;;;;1.95;1.85;;;;;;;;;;5255439;28;20021;-82
2022/10/24 14:06:02;;;;;;;4.95;2.13;;;;;;;;;;5252084;28;20032;-81
2022/10/24 14:08:34;;;;;;;7.22;2.70;;;;;;;;;;5251263;28;20092;-81
2022/10/24 14:11:06;;;;;;;2.80;2.50;;;;;;;;;;5250217;28;20034;-81
2022/10/24 14:13:41;;;;;;;3.75;2.70;;;;;;;;;;5249344;28;20042;-82
2022/10/24 14:16:12;;;;;;;2.03;1.85;;;;;;;;;;5250291;28;20184;-81
2022/10/24 14:18:42;;;;;;;9.07;2.72;;;;;;;;;;5256191;28;20068;-81
2022/10/24 14:21:17;;;;;;;8.57;2.92;;;;;;;;;;5255692;28;20442;-82
2022/10/24 14:23:59;;;;;;;5.70;3.17;;;;;;;;;;5255512;28;20052;-81
2022/10/24 14:26:29;;;;;;;2.45;2.30;;;;;;;;;;5254311;28;20017;-82
2022/10/24 14:28:59;;;;;;;2.75;2.30;;;;;;;;;;5266809;28;20024;-82
2022/10/24 14:31:33;;;;;;;8.05;2.13;;;;;;;;;;5275199;28;20043;-82
2022/10/24 14:34:04;;;;;;;1.92;1.83;;;;;;;;;;5278184;28;20053;-82
2022/10/24 14:36:37;;;;;;;13.65;1.95;;;;;;;;;;5273449;28;20016;-82
2022/10/24 14:39:15;;;;;;;2.95;2.45;;;;;;;;;;5254383;28;20032;-81
2022/10/24 14:41:45;;;;;;;3.83;2.35;;;;;;;;;;5257421;28;20614;-82
2022/10/24 14:44:17;;;;;;;9.35;3.22;;;;;;;;;;5268720;28;20020;-82
2022/10/24 14:47:01;;;;;;;3.85;1.75;;;;;;;;;;5270703;28;20147;-80
2022/10/24 14:49:35;;;;;;;3.67;2.25;;;;;;;;;;5272206;28;20025;-81
2022/10/24 14:52:05;;;;;;;4.47;2.50;;;;;;;;;;5270186;28;20048;-81
2022/10/24 14:54:36;;;;;;;2.10;1.97;;;;;;;;;;5270104;28;20023;-83
2022/10/24 14:57:16;;;;;;;4.47;1.48;;;;;;;;;;5270188;28;20094;-80
2022/10/24 14:59:48;;;;;;;5.10;1.83;;;;;;;;;;5273301;28;20020;-79
2022/10/24 15:02:24;;;;;;;1.83;1.63;;;;;;;;;;5262755;28;20028;-81
2022/10/24 15:05:13;;;;;;;4.68;2.10;;;;;;;;;;5250962;28;20020;-82
2022/10/24 15:07:44;;;;;;;3.45;2.33;;;;;;;;;;5234723;28;20028;-80
2022/10/24 15:10:14;;;;;;;11.70;2.55;;;;;;;;;;5234357;28;20028;-81
2022/10/24 15:12:58;;;;;;;2.78;2.45;;;;;;;;;;5249405;28;20415;-81
2022/10/24 15:15:33;;;;;;;3.35;1.90;;;;;;;;;;5267981;28;20393;-81
2022/10/24 15:18:08;;;;;;;7.45;3.55;;;;;;;;;;5271039;28;20028;-81
2022/10/24 15:20:39;;;;;;;8.45;3.58;;;;;;;;;;5271330;28;20112;-81
2022/10/24 15:23:25;;;;;;;3.65;2.83;;;;;;;;;;5271985;28;20020;-80